Latest Coastal Weather Observations for Coolangatta

IDQ60701

Issued at 2:15 am EST Thursday 2 October 2014 (issued every 10 minutes, with the page automatically refreshed every 10 minutes)

About coastal observations | Map of coastal stations | Coastal observations for QLD | Marine services | Other Formats
Station Details ID: 040717 Name: COOLANGATTA Lat: -28.17 Lon: 153.51 Height: 4.0 m
Data from the previous 72 hours. | See also: Recent months at Coolangatta
Date/Time
EST
Temp

°C
Wind Pressure Rain
since 9am
mm
Weather Cloud Vis
km
Sea
Height
m
Swell
Dir
 
Speed
knots
Gust
knots
hPa Trend Height
m
Period
s
Dir
02/02:00am 18.3 S 12 18 1020.4 - 0.0 - Cloudy 10 - - - -
02/01:30am 18.2 S 11 16 1020.4 - 0.0 - Partly cloudy 10 - - - -
02/01:00am 18.7 S 13 20 1020.5 - 0.0 - Partly cloudy 10 - - - -
02/12:30am 18.7 S 12 18 1020.6 - 0.0 - Partly cloudy 10 - - - -
02/12:00am 18.9 S 12 17 1020.8 - 0.0 - Mostly cloudy 10 - - - -
 
Date/Time
EST
Temp

°C
Wind Pressure Rain
since 9am
mm
Weather Cloud Vis
km
Sea
Height
m
Swell
Dir
 
Speed
knots
Gust
knots
hPa Trend Height
m
Period
s
Dir
01/11:30pm 19.0 S 14 19 1020.8 - 0.0 - Cloudy 10 - - - -
01/11:00pm 19.0 S 14 20 1020.7 - 0.0 - Cloudy 10 - - - -
01/10:30pm 19.1 S 13 21 1020.7 - 0.0 - Cloudy 10 - - - -
01/10:00pm 19.2 S 15 23 1020.5 - 0.0 - Partly cloudy 10 - - - -
01/09:31pm 19.2 S 16 26 1020.4 - 0.0 - Cloudy 10 - - - -
01/09:30pm 19.3 S 17 26 1020.3 - 0.0 - Cloudy 10 - - - -
01/09:00pm 19.4 S 18 29 1019.9 - 0.0 - Cloudy 10 - - - -
01/08:47pm 19.5 S 17 28 1019.8 - 0.0 - Cloudy 10 - - - -
01/08:30pm 19.8 S 16 23 1019.5 - 0.0 - Cloudy 10 - - - -
01/08:03pm 19.9 S 17 27 1019.2 - 0.0 - Cloudy 10 - - - -
01/08:00pm 19.9 S 18 27 1019.2 - 0.0 - Cloudy 10 - - - -
01/07:30pm 20.2 S 17 27 1018.6 - 0.0 - Cloudy 10 - - - -
01/07:08pm 20.5 S 19 29 1017.9 - 0.0 - Partly cloudy 10 - - - -
01/07:00pm 20.6 S 18 26 1017.7 - 0.0 - Partly cloudy 10 - - - -
01/06:30pm 20.6 S 18 29 1017.2 - 0.0 - Partly cloudy 10 - - - -
01/06:02pm 20.9 S 19 29 1016.4 - 0.0 - Cloudy 10 - - - -
01/06:00pm 20.9 S 20 29 1016.4 - 0.0 - Mostly cloudy 10 - - - -
01/05:30pm 21.4 S 21 32 1015.9 - 0.0 - Cloudy 9 - - - -
01/05:02pm 22.0 S 17 27 1014.9 - 0.0 - Partly cloudy 8 - - - -
01/05:00pm 22.0 S 17 26 1014.9 - 0.0 - Partly cloudy 8 - - - -
01/04:40pm 23.4 SSE 15 29 1014.5 - 0.0 - Partly cloudy 10 - - - -
01/04:30pm 23.4 ENE 7 11 1013.7 - 0.0 - Partly cloudy 10 - - - -
01/04:00pm 22.5 N 13 18 1011.7 - 0.0 - Partly cloudy 10 - - - -
01/03:30pm 22.7 N 12 17 1011.5 - 0.0 - Partly cloudy 10 - - - -
01/03:00pm 23.2 N 14 19 1011.5 - 0.0 - - 10 - - - -
01/02:30pm 24.1 N 12 18 1011.6 - 0.0 - - 10 - - - -
01/02:00pm 23.5 N 15 19 1011.8 - 0.0 - - 10 - - - -
01/01:30pm 24.5 N 17 23 1012.1 - 0.0 - - 10 - - - -
01/01:00pm 24.3 N 15 20 1012.8 - 0.0 - - 10 - - - -
01/12:30pm 24.1 N 18 22 1013.1 - 0.0 - - 10 - - - -
01/12:00pm 24.1 NNE 18 23 1013.3 - 0.0 - - 10 - - - -
01/11:30am 25.7 N 17 21 1013.9 - 0.0 - - 10 - - - -
01/11:00am 25.7 N 17 22 1014.4 - 0.0 - - 10 - - - -
01/10:30am 25.7 N 18 21 1014.8 - 0.0 - - 10 - - - -
01/10:00am 25.4 NNW 18 23 1014.9 - 0.0 - - 10 - - - -
01/09:30am 23.7 N 17 24 1015.3 - 0.0 - - 10 - - - -
01/09:00am 24.1 N 17 22 1015.8 - 0.0 - - 10 - - - -
01/08:30am 23.4 N 14 20 1016.2 - 0.0 - - 10 - - - -
01/08:00am 22.1 NNW 11 18 1016.4 - 0.0 - - 10 - - - -
01/07:30am 21.4 NNW 13 17 1016.2 - 0.0 - - 10 - - - -
01/07:00am 20.3 NNW 14 19 1015.9 - 0.0 - - 10 - - - -
01/06:30am 19.2 NNW 11 15 1015.8 - 0.0 - - 10 - - - -
01/06:00am 18.5 NNW 10 14 1015.8 - 0.0 - - 10 - - - -
01/05:30am 18.0 NNW 13 18 1015.6 - 0.0 - - 10 - - - -
01/05:00am 17.7 N 12 16 1015.5 - 0.0 - - 10 - - - -
01/04:30am 17.9 NNW 10 13 1015.4 - 0.0 - - 10 - - - -
01/04:00am 18.2 NNW 10 13 1015.4 - 0.0 - - 10 - - - -
01/03:30am 18.2 NNW 10 13 1015.3 - 0.0 - - 10 - - - -
01/03:00am 18.7 NNW 10 13 1015.5 - 0.0 - - 10 - - - -
01/02:30am 18.8 NNW 9 12 1015.6 - 0.0 - - 10 - - - -
01/02:00am 18.9 NNW 9 12 1016.1 - 0.0 - - 10 - - - -
01/01:30am 19.0 NNW 9 13 1016.4 - 0.0 - - 10 - - - -
01/01:00am 19.1 NNW 8 14 1016.7 - 0.0 - Partly cloudy 10 - - - -
01/12:30am 19.1 NNW 8 11 1017.2 - 0.0 - Partly cloudy 10 - - - -
01/12:00am 19.1 NNW 7 10 1017.6 - 0.0 - - 10 - - - -
 
Date/Time
EST
Temp

°C
Wind Pressure Rain
since 9am
mm
Weather Cloud Vis
km
Sea
Height
m
Swell
Dir
 
Speed
knots
Gust
knots
hPa Trend Height
m
Period
s
Dir
30/11:30pm 19.0 NNW 7 10 1017.9 - 0.0 - - 10 - - - -
30/11:00pm 19.1 NNW 7 11 1018.1 - 0.0 - - 10 - - - -
30/10:30pm 19.0 NW 7 10 1018.3 - 0.0 - - 10 - - - -
30/10:00pm 19.1 NNW 7 10 1018.3 - 0.0 - - 10 - - - -
30/09:30pm 19.7 NNW 7 11 1018.4 - 0.0 - - 10 - - - -
30/09:00pm 19.8 NNW 8 11 1018.6 - 0.0 - - 10 - - - -
30/08:30pm 20.3 NNW 10 14 1018.7 - 0.0 - - 10 - - - -
30/08:00pm 20.3 NNW 11 15 1018.5 - 0.0 - - 10 - - - -
30/07:30pm 20.6 N 15 19 1018.2 - 0.0 - - 10 - - - -
30/07:00pm 20.7 N 15 20 1017.9 - 0.0 - - 10 - - - -
30/06:30pm 20.5 N 15 19 1017.7 - 0.0 - - 10 - - - -
30/06:00pm 20.8 N 16 20 1017.5 - 0.0 - - 10 - - - -
30/05:30pm 21.0 N 16 20 1017.3 - 0.0 - - 10 - - - -
30/05:00pm 21.4 N 17 21 1017.1 - 0.0 - - 10 - - - -
30/04:30pm 21.7 N 17 21 1016.9 - 0.0 - - 10 - - - -
30/04:00pm 22.1 N 18 22 1017.0 - 0.0 - - 10 - - - -
30/03:30pm 22.6 N 16 21 1016.9 - 0.0 - - 10 - - - -
30/03:00pm 23.1 N 18 25 1017.1 - 0.0 - - 10 - - - -
30/02:30pm 23.1 N 19 24 1017.1 - 0.0 - - 10 - - - -
30/02:00pm 23.4 N 18 23 1017.3 - 0.0 - - 10 - - - -
30/01:30pm 23.3 N 19 23 1017.5 - 0.0 - - 10 - - - -
30/01:00pm 24.1 N 18 24 1017.8 - 0.0 - - 10 - - - -
30/12:30pm 24.1 N 19 23 1018.2 - 0.0 - - 10 - - - -
30/12:00pm 24.7 N 18 23 1018.6 - 0.0 - - 10 - - - -
30/11:30am 24.0 N 18 23 1018.9 - 0.0 - - 10 - - - -
30/11:00am 24.6 N 16 21 1019.3 - 0.0 - - 10 - - - -
30/10:30am 23.2 N 16 21 1019.8 - 0.0 - - 10 - - - -
30/10:00am 23.6 N 15 19 1020.2 - 0.0 - - 10 - - - -
30/09:30am 23.1 N 16 19 1020.4 - 0.0 - - 10 - - - -
30/09:00am 22.9 N 15 18 1020.5 - 0.0 - - 10 - - - -
30/08:30am 22.1 N 13 16 1020.4 - 0.0 - - 10 - - - -
30/08:00am 21.5 N 11 15 1020.4 - 0.0 - - 10 - - - -
30/07:30am 20.6 NNW 10 14 1020.3 - 0.0 - - 10 - - - -
30/07:00am 19.5 NNW 10 13 1020.2 - 0.0 - - 10 - - - -
30/06:30am 18.4 NNW 10 14 1020.0 - 0.0 - - 10 - - - -
30/06:00am 17.5 NNW 8 11 1019.8 - 0.0 - - 10 - - - -
30/05:30am 16.4 N 8 9 1019.6 - 0.0 - - 10 - - - -
30/05:00am 16.9 N 8 11 1019.3 - 0.0 - - 10 - - - -
30/04:30am 17.4 NNW 7 10 1019.0 - 0.0 - - 10 - - - -
30/04:00am 17.2 NW 7 11 1018.6 - 0.0 - - 10 - - - -
30/03:30am 17.3 NW 7 10 1018.6 - 0.0 - - 10 - - - -
30/03:00am 17.5 NNW 7 10 1018.7 - 0.0 - - 10 - - - -
30/02:30am 17.7 NW 8 11 1018.9 - 0.0 - - 10 - - - -
30/02:00am 17.6 NW 7 10 1018.9 - 0.0 - - 10 - - - -
30/01:30am 17.5 NW 7 9 1019.1 - 0.0 - - 10 - - - -
30/01:00am 17.4 NW 7 10 1019.2 - 0.0 - - 10 - - - -
30/12:30am 17.4 NW 7 9 1019.4 - 0.0 - - 10 - - - -
30/12:00am 17.1 NW 6 8 1019.6 - 0.0 - - 10 - - - -
 
Date/Time
EST
Temp

°C
Wind Pressure Rain
since 9am
mm
Weather Cloud Vis
km
Sea
Height
m
Swell
Dir
 
Speed
knots
Gust
knots
hPa Trend Height
m
Period
s
Dir
29/11:30pm 17.2 NW 5 7 1019.8 - 0.0 - - 10 - - - -
29/11:00pm 17.5 NW 7 9 1019.9 - 0.0 - - 10 - - - -
29/10:30pm 17.4 NW 6 8 1020.0 - 0.0 - - 10 - - - -
29/10:00pm 17.7 NW 6 8 1020.0 - 0.0 - - 10 - - - -
29/09:30pm 17.6 NW 5 7 1020.1 - 0.0 - - 10 - - - -
29/09:00pm 18.2 NW 7 9 1020.0 - 0.0 - - 10 - - - -
29/08:30pm 18.1 NW 6 7 1019.8 - 0.0 - - 10 - - - -
29/08:00pm 19.1 NNW 7 9 1019.5 - 0.0 - - 10 - - - -
29/07:30pm 19.9 N 12 17 1019.1 - 0.0 - - 10 - - - -
29/07:00pm 20.1 N 16 20 1018.8 - 0.0 - - 10 - - - -
29/06:30pm 20.2 N 16 21 1018.7 - 0.0 - - 10 - - - -
29/06:00pm 20.2 N 14 17 1018.5 - 0.0 - - 10 - - - -
29/05:30pm 20.6 N 14 17 1018.2 - 0.0 - - 10 - - - -
29/05:00pm 21.1 N 14 18 1018.0 - 0.0 - - 10 - - - -
29/04:30pm 21.7 N 13 16 1017.9 - 0.0 - - 10 - - - -
29/04:00pm 22.0 N 15 19 1017.7 - 0.0 - - 10 - - - -
29/03:30pm 22.2 N 15 18 1017.5 - 0.0 - - 10 - - - -
29/03:00pm 22.6 N 15 19 1017.5 - 0.0 - Mostly clear 10 - - - -
29/02:30pm 22.9 N 15 19 1017.6 - 0.0 - Partly cloudy 10 - - - -
29/02:00pm 22.6 N 15 18 1017.8 - 0.0 - Partly cloudy 10 - - - -
29/01:30pm 22.8 N 15 19 1018.0 - 0.0 - - 10 - - - -
29/01:00pm 22.6 N 15 19 1018.3 - 0.0 - - 10 - - - -
29/12:30pm 22.8 N 15 19 1018.6 - 0.0 - - 10 - - - -
29/12:00pm 22.7 N 15 18 1019.0 - 0.0 - - 10 - - - -
29/11:30am 23.2 N 15 18 1019.5 - 0.0 - - 10 - - - -
29/11:00am 23.2 N 15 18 1019.8 - 0.0 - - 10 - - - -
29/10:30am 22.2 N 15 18 1020.2 - 0.0 - - 10 - - - -
29/10:00am 22.5 N 13 16 1020.7 - 0.0 - - 10 - - - -
29/09:30am 22.0 N 12 15 1021.1 - 0.0 - - 10 - - - -
29/09:00am 21.3 N 11 16 1021.4 - 0.2 - - 10 - - - -
29/08:30am 21.2 NNW 10 14 1021.5 - 0.2 - - 10 - - - -
29/08:00am 20.5 NW 9 12 1021.5 - 0.2 - - 10 - - - -
29/07:30am 19.5 WNW 7 8 1021.4 - 0.2 - - 10 - - - -
29/07:00am 17.4 W 3 5 1021.4 - 0.2 - - 10 - - - -
29/06:30am 14.2 SW 3 4 1021.2 - 0.2 - - 10 - - - -
29/06:00am 12.3 SW 3 4 1021.0 - 0.2 - - 10 - - - -
29/05:30am 12.1 CALM 0 0 1020.7 - 0.2 - - 10 - - - -
29/05:00am 12.4 SW 2 3 1020.3 - 0.2 - - 10 - - - -
29/04:30am 12.5 SW 2 3 1020.0 - 0.2 - - 10 - - - -
29/04:00am 12.7 SW 3 4 1019.7 - 0.2 - Partly cloudy 10 - - - -
29/03:30am 12.7 WSW 3 4 1019.6 - 0.2 - Partly cloudy 10 - - - -
29/03:00am 12.7 SW 3 5 1019.6 - 0.2 - - 10 - - - -
29/02:30am 13.2 WSW 3 4 1020.0 - 0.2 - Partly cloudy 10 - - - -

Other Formats:

Comma delimited format used in spreadsheet applications
http://www.bom.gov.au/fwo/IDQ60701/IDQ60701.94592.axf

JavaScript Object Notation format (JSON) in row-major order
http://www.bom.gov.au/fwo/IDQ60701/IDQ60701.94592.json